sensor_id;sensor_type;location;lat;lon;timestamp;P1;durP1;ratioP1;P2;durP2;ratioP2
68870;SDS011;55906;52.278;6.808;2023-04-30T00:00:00;7.05;;;5.20;;
68870;SDS011;55906;52.278;6.808;2023-04-30T00:02:26;6.53;;;4.80;;
68870;SDS011;55906;52.278;6.808;2023-04-30T00:04:53;7.30;;;4.78;;
68870;SDS011;55906;52.278;6.808;2023-04-30T00:07:21;6.47;;;5.20;;
68870;SDS011;55906;52.278;6.808;2023-04-30T00:09:47;7.22;;;5.50;;
68870;SDS011;55906;52.278;6.808;2023-04-30T00:12:15;7.43;;;5.05;;
68870;SDS011;55906;52.278;6.808;2023-04-30T00:14:42;6.70;;;5.17;;
68870;SDS011;55906;52.278;6.808;2023-04-30T00:17:08;5.82;;;4.70;;
68870;SDS011;55906;52.278;6.808;2023-04-30T00:19:35;6.30;;;5.05;;
68870;SDS011;55906;52.278;6.808;2023-04-30T00:22:01;6.10;;;4.60;;
68870;SDS011;55906;52.278;6.808;2023-04-30T00:24:30;7.45;;;5.07;;
68870;SDS011;55906;52.278;6.808;2023-04-30T00:26:57;7.10;;;5.10;;
68870;SDS011;55906;52.278;6.808;2023-04-30T00:29:24;6.85;;;4.85;;
68870;SDS011;55906;52.278;6.808;2023-04-30T00:31:50;5.88;;;4.82;;
68870;SDS011;55906;52.278;6.808;2023-04-30T00:34:17;7.65;;;4.93;;
68870;SDS011;55906;52.278;6.808;2023-04-30T00:36:43;7.20;;;5.40;;
68870;SDS011;55906;52.278;6.808;2023-04-30T00:39:10;6.77;;;4.50;;
68870;SDS011;55906;52.278;6.808;2023-04-30T00:41:38;6.68;;;5.50;;
68870;SDS011;55906;52.278;6.808;2023-04-30T00:44:05;6.57;;;4.90;;
68870;SDS011;55906;52.278;6.808;2023-04-30T00:46:31;7.10;;;5.32;;
68870;SDS011;55906;52.278;6.808;2023-04-30T00:48:58;7.78;;;5.25;;
68870;SDS011;55906;52.278;6.808;2023-04-30T00:51:28;5.93;;;4.87;;
68870;SDS011;55906;52.278;6.808;2023-04-30T00:53:56;7.40;;;5.70;;
68870;SDS011;55906;52.278;6.808;2023-04-30T00:56:23;6.35;;;5.20;;
68870;SDS011;55906;52.278;6.808;2023-04-30T00:58:51;8.55;;;5.35;;
68870;SDS011;55906;52.278;6.808;2023-04-30T01:01:21;6.28;;;5.57;;
68870;SDS011;55906;52.278;6.808;2023-04-30T01:03:48;6.33;;;4.60;;
68870;SDS011;55906;52.278;6.808;2023-04-30T01:06:15;6.63;;;4.97;;
68870;SDS011;55906;52.278;6.808;2023-04-30T01:08:41;6.00;;;4.90;;
68870;SDS011;55906;52.278;6.808;2023-04-30T01:11:11;6.28;;;4.90;;
68870;SDS011;55906;52.278;6.808;2023-04-30T01:13:49;6.88;;;5.38;;
68870;SDS011;55906;52.278;6.808;2023-04-30T01:16:24;8.50;;;5.10;;
68870;SDS011;55906;52.278;6.808;2023-04-30T01:18:54;7.18;;;4.90;;
68870;SDS011;55906;52.278;6.808;2023-04-30T01:21:24;6.40;;;5.50;;
68870;SDS011;55906;52.278;6.808;2023-04-30T01:24:01;6.45;;;5.30;;
68870;SDS011;55906;52.278;6.808;2023-04-30T01:26:44;7.43;;;5.38;;
68870;SDS011;55906;52.278;6.808;2023-04-30T01:29:19;8.13;;;4.97;;
68870;SDS011;55906;52.278;6.808;2023-04-30T01:31:49;7.57;;;5.20;;
68870;SDS011;55906;52.278;6.808;2023-04-30T01:34:16;6.45;;;5.20;;
68870;SDS011;55906;52.278;6.808;2023-04-30T01:36:44;6.82;;;4.93;;
68870;SDS011;55906;52.278;6.808;2023-04-30T01:39:25;6.00;;;4.80;;
68870;SDS011;55906;52.278;6.808;2023-04-30T01:42:04;7.90;;;5.00;;
68870;SDS011;55906;52.278;6.808;2023-04-30T01:44:44;6.95;;;5.30;;
68870;SDS011;55906;52.278;6.808;2023-04-30T01:47:22;7.13;;;4.95;;
68870;SDS011;55906;52.278;6.808;2023-04-30T01:49:57;7.20;;;4.90;;
68870;SDS011;55906;52.278;6.808;2023-04-30T01:52:37;7.82;;;5.20;;
68870;SDS011;55906;52.278;6.808;2023-04-30T01:55:10;6.60;;;5.50;;
68870;SDS011;55906;52.278;6.808;2023-04-30T01:57:40;6.35;;;5.00;;
68870;SDS011;55906;52.278;6.808;2023-04-30T02:00:11;7.80;;;5.78;;
68870;SDS011;55906;52.278;6.808;2023-04-30T02:02:41;7.10;;;5.15;;
68870;SDS011;55906;52.278;6.808;2023-04-30T02:05:08;8.20;;;5.20;;
68870;SDS011;55906;52.278;6.808;2023-04-30T02:07:38;7.00;;;5.03;;
68870;SDS011;55906;52.278;6.808;2023-04-30T02:10:07;6.38;;;5.22;;
68870;SDS011;55906;52.278;6.808;2023-04-30T02:12:36;8.07;;;6.13;;
68870;SDS011;55906;52.278;6.808;2023-04-30T02:15:03;7.72;;;4.93;;
68870;SDS011;55906;52.278;6.808;2023-04-30T02:17:32;8.23;;;6.00;;
68870;SDS011;55906;52.278;6.808;2023-04-30T02:19:58;7.63;;;5.57;;
68870;SDS011;55906;52.278;6.808;2023-04-30T02:22:25;6.63;;;5.20;;
68870;SDS011;55906;52.278;6.808;2023-04-30T02:24:52;6.30;;;5.03;;
68870;SDS011;55906;52.278;6.808;2023-04-30T02:27:20;6.80;;;4.85;;
68870;SDS011;55906;52.278;6.808;2023-04-30T02:29:47;7.38;;;4.63;;
68870;SDS011;55906;52.278;6.808;2023-04-30T02:32:14;6.53;;;4.87;;
68870;SDS011;55906;52.278;6.808;2023-04-30T02:34:42;6.85;;;5.35;;
68870;SDS011;55906;52.278;6.808;2023-04-30T02:37:09;6.93;;;5.28;;
68870;SDS011;55906;52.278;6.808;2023-04-30T02:39:36;7.15;;;5.18;;
68870;SDS011;55906;52.278;6.808;2023-04-30T02:42:02;8.02;;;6.18;;
68870;SDS011;55906;52.278;6.808;2023-04-30T02:44:31;7.33;;;6.63;;
68870;SDS011;55906;52.278;6.808;2023-04-30T02:46:58;7.25;;;5.70;;
68870;SDS011;55906;52.278;6.808;2023-04-30T02:49:25;7.15;;;5.28;;
68870;SDS011;55906;52.278;6.808;2023-04-30T02:51:53;7.68;;;5.13;;
68870;SDS011;55906;52.278;6.808;2023-04-30T02:54:19;6.68;;;4.80;;
68870;SDS011;55906;52.278;6.808;2023-04-30T02:56:46;6.73;;;5.23;;
68870;SDS011;55906;52.278;6.808;2023-04-30T02:59:13;6.75;;;5.00;;
68870;SDS011;55906;52.278;6.808;2023-04-30T03:01:39;7.20;;;6.07;;
68870;SDS011;55906;52.278;6.808;2023-04-30T03:04:06;7.63;;;6.03;;
68870;SDS011;55906;52.278;6.808;2023-04-30T03:06:33;7.78;;;5.50;;
68870;SDS011;55906;52.278;6.808;2023-04-30T03:09:01;6.83;;;5.20;;
68870;SDS011;55906;52.278;6.808;2023-04-30T03:11:27;7.35;;;5.50;;
68870;SDS011;55906;52.278;6.808;2023-04-30T03:13:54;6.78;;;5.90;;
68870;SDS011;55906;52.278;6.808;2023-04-30T03:16:21;6.93;;;5.25;;
68870;SDS011;55906;52.278;6.808;2023-04-30T03:18:47;10.33;;;5.57;;
68870;SDS011;55906;52.278;6.808;2023-04-30T03:21:15;8.18;;;5.80;;
68870;SDS011;55906;52.278;6.808;2023-04-30T03:23:41;7.57;;;5.75;;
68870;SDS011;55906;52.278;6.808;2023-04-30T03:26:09;7.68;;;5.70;;
68870;SDS011;55906;52.278;6.808;2023-04-30T03:28:36;6.78;;;5.43;;
68870;SDS011;55906;52.278;6.808;2023-04-30T03:31:02;7.73;;;5.90;;
68870;SDS011;55906;52.278;6.808;2023-04-30T03:33:30;11.35;;;6.00;;
68870;SDS011;55906;52.278;6.808;2023-04-30T03:35:56;8.70;;;6.03;;
68870;SDS011;55906;52.278;6.808;2023-04-30T03:38:23;7.60;;;5.25;;
68870;SDS011;55906;52.278;6.808;2023-04-30T03:40:50;8.00;;;5.90;;
68870;SDS011;55906;52.278;6.808;2023-04-30T03:43:18;7.07;;;5.07;;
68870;SDS011;55906;52.278;6.808;2023-04-30T03:45:44;6.82;;;5.45;;
68870;SDS011;55906;52.278;6.808;2023-04-30T03:48:11;7.30;;;5.45;;
68870;SDS011;55906;52.278;6.808;2023-04-30T03:50:38;9.15;;;6.28;;
68870;SDS011;55906;52.278;6.808;2023-04-30T03:53:05;8.43;;;5.93;;
68870;SDS011;55906;52.278;6.808;2023-04-30T03:55:31;8.70;;;5.55;;
68870;SDS011;55906;52.278;6.808;2023-04-30T03:57:59;6.95;;;5.80;;
68870;SDS011;55906;52.278;6.808;2023-04-30T04:00:28;7.57;;;6.22;;
68870;SDS011;55906;52.278;6.808;2023-04-30T04:02:56;7.28;;;6.18;;
68870;SDS011;55906;52.278;6.808;2023-04-30T04:05:23;7.07;;;5.70;;
68870;SDS011;55906;52.278;6.808;2023-04-30T04:07:50;7.95;;;6.25;;
68870;SDS011;55906;52.278;6.808;2023-04-30T04:10:17;7.63;;;5.80;;
68870;SDS011;55906;52.278;6.808;2023-04-30T04:12:44;6.93;;;5.25;;
68870;SDS011;55906;52.278;6.808;2023-04-30T04:15:11;8.40;;;5.88;;
68870;SDS011;55906;52.278;6.808;2023-04-30T04:17:39;8.23;;;5.70;;
68870;SDS011;55906;52.278;6.808;2023-04-30T04:20:06;6.73;;;5.30;;
68870;SDS011;55906;52.278;6.808;2023-04-30T04:22:34;8.25;;;6.05;;
68870;SDS011;55906;52.278;6.808;2023-04-30T04:25:00;7.15;;;5.60;;
68870;SDS011;55906;52.278;6.808;2023-04-30T04:27:27;7.35;;;6.00;;
68870;SDS011;55906;52.278;6.808;2023-04-30T04:29:54;6.93;;;6.07;;
68870;SDS011;55906;52.278;6.808;2023-04-30T04:32:21;6.70;;;5.57;;
68870;SDS011;55906;52.278;6.808;2023-04-30T04:34:49;6.35;;;4.97;;
68870;SDS011;55906;52.278;6.808;2023-04-30T04:37:18;6.82;;;5.20;;
68870;SDS011;55906;52.278;6.808;2023-04-30T04:39:44;6.53;;;5.82;;
68870;SDS011;55906;52.278;6.808;2023-04-30T04:42:11;7.07;;;5.53;;
68870;SDS011;55906;52.278;6.808;2023-04-30T04:44:38;6.75;;;5.35;;
68870;SDS011;55906;52.278;6.808;2023-04-30T04:47:05;7.63;;;6.03;;
68870;SDS011;55906;52.278;6.808;2023-04-30T04:49:34;6.13;;;5.32;;
68870;SDS011;55906;52.278;6.808;2023-04-30T04:52:02;7.63;;;5.47;;
68870;SDS011;55906;52.278;6.808;2023-04-30T04:54:29;8.68;;;6.13;;
68870;SDS011;55906;52.278;6.808;2023-04-30T04:56:56;6.68;;;5.30;;
68870;SDS011;55906;52.278;6.808;2023-04-30T04:59:22;7.40;;;5.57;;
68870;SDS011;55906;52.278;6.808;2023-04-30T05:01:49;7.80;;;5.23;;
68870;SDS011;55906;52.278;6.808;2023-04-30T05:04:16;9.10;;;5.60;;
68870;SDS011;55906;52.278;6.808;2023-04-30T05:06:45;8.50;;;6.18;;
68870;SDS011;55906;52.278;6.808;2023-04-30T05:09:13;10.82;;;6.32;;
68870;SDS011;55906;52.278;6.808;2023-04-30T05:11:40;9.82;;;6.55;;
68870;SDS011;55906;52.278;6.808;2023-04-30T05:14:07;10.17;;;6.53;;
68870;SDS011;55906;52.278;6.808;2023-04-30T05:16:34;9.90;;;6.80;;
68870;SDS011;55906;52.278;6.808;2023-04-30T05:19:01;8.85;;;7.82;;
68870;SDS011;55906;52.278;6.808;2023-04-30T05:21:27;7.93;;;6.80;;
68870;SDS011;55906;52.278;6.808;2023-04-30T05:23:56;10.60;;;7.13;;
68870;SDS011;55906;52.278;6.808;2023-04-30T05:26:24;9.52;;;6.65;;
68870;SDS011;55906;52.278;6.808;2023-04-30T05:28:50;9.43;;;6.57;;
68870;SDS011;55906;52.278;6.808;2023-04-30T05:31:17;8.32;;;6.50;;
68870;SDS011;55906;52.278;6.808;2023-04-30T05:33:44;8.70;;;7.07;;
68870;SDS011;55906;52.278;6.808;2023-04-30T05:36:11;10.47;;;7.50;;
68870;SDS011;55906;52.278;6.808;2023-04-30T05:38:37;8.90;;;6.65;;
68870;SDS011;55906;52.278;6.808;2023-04-30T05:41:04;11.23;;;7.38;;
68870;SDS011;55906;52.278;6.808;2023-04-30T05:43:32;11.75;;;7.70;;
68870;SDS011;55906;52.278;6.808;2023-04-30T05:45:59;12.47;;;9.30;;
68870;SDS011;55906;52.278;6.808;2023-04-30T05:48:26;8.15;;;6.30;;
68870;SDS011;55906;52.278;6.808;2023-04-30T05:50:53;9.93;;;7.20;;
68870;SDS011;55906;52.278;6.808;2023-04-30T05:53:20;8.57;;;5.80;;
68870;SDS011;55906;52.278;6.808;2023-04-30T05:55:46;10.18;;;6.35;;
68870;SDS011;55906;52.278;6.808;2023-04-30T05:58:14;8.00;;;5.97;;
68870;SDS011;55906;52.278;6.808;2023-04-30T06:00:42;9.23;;;5.85;;
68870;SDS011;55906;52.278;6.808;2023-04-30T06:03:09;11.35;;;7.18;;
68870;SDS011;55906;52.278;6.808;2023-04-30T06:05:36;7.65;;;5.90;;
68870;SDS011;55906;52.278;6.808;2023-04-30T06:08:05;9.32;;;6.45;;
68870;SDS011;55906;52.278;6.808;2023-04-30T06:10:32;7.73;;;5.87;;
68870;SDS011;55906;52.278;6.808;2023-04-30T06:12:59;9.05;;;5.10;;
68870;SDS011;55906;52.278;6.808;2023-04-30T06:15:26;7.38;;;5.05;;
68870;SDS011;55906;52.278;6.808;2023-04-30T06:17:54;7.72;;;5.35;;
68870;SDS011;55906;52.278;6.808;2023-04-30T06:20:23;8.63;;;5.22;;
68870;SDS011;55906;52.278;6.808;2023-04-30T06:22:51;10.40;;;6.40;;
68870;SDS011;55906;52.278;6.808;2023-04-30T06:25:17;8.55;;;5.32;;
68870;SDS011;55906;52.278;6.808;2023-04-30T06:27:44;10.07;;;6.03;;
68870;SDS011;55906;52.278;6.808;2023-04-30T06:30:11;8.93;;;5.30;;
68870;SDS011;55906;52.278;6.808;2023-04-30T06:32:38;6.97;;;5.45;;
68870;SDS011;55906;52.278;6.808;2023-04-30T06:35:07;9.03;;;5.47;;
68870;SDS011;55906;52.278;6.808;2023-04-30T06:37:34;10.30;;;6.22;;
68870;SDS011;55906;52.278;6.808;2023-04-30T06:40:04;7.35;;;4.97;;
68870;SDS011;55906;52.278;6.808;2023-04-30T06:42:32;7.57;;;4.53;;
68870;SDS011;55906;52.278;6.808;2023-04-30T06:45:00;10.48;;;4.90;;
68870;SDS011;55906;52.278;6.808;2023-04-30T06:47:29;8.33;;;5.37;;
68870;SDS011;55906;52.278;6.808;2023-04-30T06:49:58;10.90;;;4.82;;
68870;SDS011;55906;52.278;6.808;2023-04-30T06:52:27;8.10;;;5.10;;
68870;SDS011;55906;52.278;6.808;2023-04-30T06:54:54;9.13;;;4.97;;
68870;SDS011;55906;52.278;6.808;2023-04-30T06:57:20;7.22;;;4.82;;
68870;SDS011;55906;52.278;6.808;2023-04-30T06:59:49;10.60;;;4.60;;
68870;SDS011;55906;52.278;6.808;2023-04-30T07:02:16;8.45;;;4.72;;
68870;SDS011;55906;52.278;6.808;2023-04-30T07:04:42;7.95;;;4.88;;
68870;SDS011;55906;52.278;6.808;2023-04-30T07:07:09;7.70;;;5.05;;
68870;SDS011;55906;52.278;6.808;2023-04-30T07:09:37;8.70;;;4.43;;
68870;SDS011;55906;52.278;6.808;2023-04-30T07:12:04;11.27;;;4.90;;
68870;SDS011;55906;52.278;6.808;2023-04-30T07:14:31;8.50;;;5.03;;
68870;SDS011;55906;52.278;6.808;2023-04-30T07:16:58;8.50;;;5.13;;
68870;SDS011;55906;52.278;6.808;2023-04-30T07:19:25;10.45;;;4.90;;
68870;SDS011;55906;52.278;6.808;2023-04-30T07:21:52;8.40;;;4.82;;
68870;SDS011;55906;52.278;6.808;2023-04-30T07:24:18;8.93;;;4.40;;
68870;SDS011;55906;52.278;6.808;2023-04-30T07:26:46;9.02;;;3.83;;
68870;SDS011;55906;52.278;6.808;2023-04-30T07:29:13;7.18;;;3.97;;
68870;SDS011;55906;52.278;6.808;2023-04-30T07:31:42;8.18;;;5.00;;
68870;SDS011;55906;52.278;6.808;2023-04-30T07:34:09;7.47;;;4.05;;
68870;SDS011;55906;52.278;6.808;2023-04-30T07:36:36;6.53;;;4.07;;
68870;SDS011;55906;52.278;6.808;2023-04-30T07:39:03;8.43;;;4.53;;
68870;SDS011;55906;52.278;6.808;2023-04-30T07:41:32;8.23;;;4.40;;
68870;SDS011;55906;52.278;6.808;2023-04-30T07:44:00;8.90;;;4.10;;
68870;SDS011;55906;52.278;6.808;2023-04-30T07:46:27;8.35;;;4.05;;
68870;SDS011;55906;52.278;6.808;2023-04-30T07:48:53;9.33;;;4.43;;
68870;SDS011;55906;52.278;6.808;2023-04-30T07:51:20;7.60;;;4.20;;
68870;SDS011;55906;52.278;6.808;2023-04-30T07:53:46;5.90;;;3.67;;
68870;SDS011;55906;52.278;6.808;2023-04-30T07:56:13;6.78;;;3.58;;
68870;SDS011;55906;52.278;6.808;2023-04-30T07:58:40;6.00;;;3.58;;
68870;SDS011;55906;52.278;6.808;2023-04-30T08:01:08;6.63;;;3.80;;
68870;SDS011;55906;52.278;6.808;2023-04-30T08:03:34;6.57;;;3.90;;
68870;SDS011;55906;52.278;6.808;2023-04-30T08:06:01;8.70;;;3.60;;
68870;SDS011;55906;52.278;6.808;2023-04-30T08:08:28;8.95;;;4.25;;
68870;SDS011;55906;52.278;6.808;2023-04-30T08:10:54;5.97;;;3.70;;
68870;SDS011;55906;52.278;6.808;2023-04-30T08:13:21;8.27;;;4.20;;
68870;SDS011;55906;52.278;6.808;2023-04-30T08:15:47;5.97;;;3.45;;
68870;SDS011;55906;52.278;6.808;2023-04-30T08:18:15;7.70;;;3.70;;
68870;SDS011;55906;52.278;6.808;2023-04-30T08:20:42;8.27;;;3.70;;
68870;SDS011;55906;52.278;6.808;2023-04-30T08:23:08;7.18;;;3.83;;
68870;SDS011;55906;52.278;6.808;2023-04-30T08:25:35;7.43;;;3.80;;
68870;SDS011;55906;52.278;6.808;2023-04-30T08:28:02;7.93;;;3.42;;
68870;SDS011;55906;52.278;6.808;2023-04-30T08:30:28;8.50;;;3.30;;
68870;SDS011;55906;52.278;6.808;2023-04-30T08:32:55;6.15;;;3.67;;
68870;SDS011;55906;52.278;6.808;2023-04-30T08:35:23;8.52;;;4.00;;
68870;SDS011;55906;52.278;6.808;2023-04-30T08:37:50;6.93;;;3.63;;
68870;SDS011;55906;52.278;6.808;2023-04-30T08:40:17;8.43;;;3.67;;
68870;SDS011;55906;52.278;6.808;2023-04-30T08:42:45;8.18;;;4.85;;
68870;SDS011;55906;52.278;6.808;2023-04-30T08:45:19;7.47;;;4.18;;
68870;SDS011;55906;52.278;6.808;2023-04-30T08:47:45;7.07;;;4.07;;
68870;SDS011;55906;52.278;6.808;2023-04-30T08:50:14;8.23;;;4.23;;
68870;SDS011;55906;52.278;6.808;2023-04-30T08:52:42;8.85;;;3.60;;
68870;SDS011;55906;52.278;6.808;2023-04-30T08:55:09;5.43;;;3.10;;
68870;SDS011;55906;52.278;6.808;2023-04-30T08:57:36;7.68;;;3.25;;
68870;SDS011;55906;52.278;6.808;2023-04-30T09:00:03;8.35;;;3.28;;
68870;SDS011;55906;52.278;6.808;2023-04-30T09:02:31;6.53;;;2.90;;
68870;SDS011;55906;52.278;6.808;2023-04-30T09:04:58;5.70;;;3.25;;
68870;SDS011;55906;52.278;6.808;2023-04-30T09:07:25;7.30;;;3.30;;
68870;SDS011;55906;52.278;6.808;2023-04-30T09:09:54;8.43;;;3.95;;
68870;SDS011;55906;52.278;6.808;2023-04-30T09:12:22;5.85;;;2.80;;
68870;SDS011;55906;52.278;6.808;2023-04-30T09:15:00;6.25;;;2.92;;
68870;SDS011;55906;52.278;6.808;2023-04-30T09:17:27;6.50;;;3.05;;
68870;SDS011;55906;52.278;6.808;2023-04-30T09:19:55;5.93;;;3.10;;
68870;SDS011;55906;52.278;6.808;2023-04-30T09:22:32;7.63;;;2.83;;
68870;SDS011;55906;52.278;6.808;2023-04-30T09:25:00;5.50;;;2.55;;
68870;SDS011;55906;52.278;6.808;2023-04-30T09:27:27;5.93;;;2.53;;
68870;SDS011;55906;52.278;6.808;2023-04-30T09:29:54;6.95;;;2.65;;
68870;SDS011;55906;52.278;6.808;2023-04-30T09:32:20;8.20;;;2.38;;
68870;SDS011;55906;52.278;6.808;2023-04-30T09:34:47;5.18;;;2.45;;
68870;SDS011;55906;52.278;6.808;2023-04-30T09:37:13;7.95;;;3.17;;
68870;SDS011;55906;52.278;6.808;2023-04-30T09:39:47;5.15;;;2.00;;
68870;SDS011;55906;52.278;6.808;2023-04-30T09:42:17;4.18;;;2.17;;
68870;SDS011;55906;52.278;6.808;2023-04-30T09:44:44;8.13;;;2.72;;
68870;SDS011;55906;52.278;6.808;2023-04-30T09:47:13;5.47;;;2.17;;
68870;SDS011;55906;52.278;6.808;2023-04-30T09:49:41;5.50;;;2.50;;
68870;SDS011;55906;52.278;6.808;2023-04-30T09:52:09;6.03;;;2.35;;
68870;SDS011;55906;52.278;6.808;2023-04-30T09:54:36;5.65;;;1.90;;
68870;SDS011;55906;52.278;6.808;2023-04-30T09:57:03;6.20;;;2.28;;
68870;SDS011;55906;52.278;6.808;2023-04-30T09:59:35;5.07;;;1.73;;
68870;SDS011;55906;52.278;6.808;2023-04-30T10:02:04;5.18;;;1.77;;
68870;SDS011;55906;52.278;6.808;2023-04-30T10:04:32;6.68;;;2.95;;
68870;SDS011;55906;52.278;6.808;2023-04-30T10:07:00;6.20;;;2.33;;
68870;SDS011;55906;52.278;6.808;2023-04-30T10:09:32;9.05;;;2.50;;
68870;SDS011;55906;52.278;6.808;2023-04-30T10:12:04;6.28;;;2.30;;
68870;SDS011;55906;52.278;6.808;2023-04-30T10:14:39;4.53;;;1.80;;
68870;SDS011;55906;52.278;6.808;2023-04-30T10:17:13;7.93;;;1.98;;
68870;SDS011;55906;52.278;6.808;2023-04-30T10:19:42;4.80;;;2.10;;
68870;SDS011;55906;52.278;6.808;2023-04-30T10:22:11;6.40;;;2.10;;
68870;SDS011;55906;52.278;6.808;2023-04-30T10:24:39;5.82;;;2.42;;
68870;SDS011;55906;52.278;6.808;2023-04-30T10:27:08;4.93;;;2.00;;
68870;SDS011;55906;52.278;6.808;2023-04-30T10:29:35;5.43;;;2.05;;
68870;SDS011;55906;52.278;6.808;2023-04-30T10:32:03;5.27;;;2.13;;
68870;SDS011;55906;52.278;6.808;2023-04-30T10:34:34;5.70;;;2.58;;
68870;SDS011;55906;52.278;6.808;2023-04-30T10:37:08;5.50;;;2.03;;
68870;SDS011;55906;52.278;6.808;2023-04-30T10:39:41;5.20;;;2.03;;
68870;SDS011;55906;52.278;6.808;2023-04-30T10:42:08;4.47;;;1.90;;
68870;SDS011;55906;52.278;6.808;2023-04-30T10:44:36;5.20;;;1.73;;
68870;SDS011;55906;52.278;6.808;2023-04-30T10:47:04;4.25;;;1.50;;
68870;SDS011;55906;52.278;6.808;2023-04-30T10:49:32;4.68;;;1.92;;
68870;SDS011;55906;52.278;6.808;2023-04-30T10:51:59;4.15;;;1.58;;
68870;SDS011;55906;52.278;6.808;2023-04-30T10:54:28;5.85;;;2.30;;
68870;SDS011;55906;52.278;6.808;2023-04-30T10:57:07;5.07;;;1.83;;
68870;SDS011;55906;52.278;6.808;2023-04-30T10:59:35;4.35;;;1.58;;
68870;SDS011;55906;52.278;6.808;2023-04-30T11:02:03;4.90;;;1.60;;
68870;SDS011;55906;52.278;6.808;2023-04-30T11:04:30;5.05;;;2.00;;
68870;SDS011;55906;52.278;6.808;2023-04-30T11:07:00;3.67;;;1.40;;
68870;SDS011;55906;52.278;6.808;2023-04-30T11:09:37;5.53;;;1.57;;
68870;SDS011;55906;52.278;6.808;2023-04-30T11:12:09;5.10;;;1.50;;
68870;SDS011;55906;52.278;6.808;2023-04-30T11:14:41;5.15;;;1.70;;
68870;SDS011;55906;52.278;6.808;2023-04-30T11:17:12;4.75;;;1.90;;
68870;SDS011;55906;52.278;6.808;2023-04-30T11:19:47;5.10;;;1.70;;
68870;SDS011;55906;52.278;6.808;2023-04-30T11:22:15;4.57;;;1.43;;
68870;SDS011;55906;52.278;6.808;2023-04-30T11:24:52;5.38;;;1.60;;
68870;SDS011;55906;52.278;6.808;2023-04-30T11:27:26;4.43;;;1.52;;
68870;SDS011;55906;52.278;6.808;2023-04-30T11:29:54;4.00;;;1.40;;
68870;SDS011;55906;52.278;6.808;2023-04-30T11:32:23;4.85;;;1.50;;
68870;SDS011;55906;52.278;6.808;2023-04-30T11:34:51;6.03;;;1.50;;
68870;SDS011;55906;52.278;6.808;2023-04-30T11:37:19;5.00;;;1.30;;
68870;SDS011;55906;52.278;6.808;2023-04-30T11:39:55;4.03;;;1.30;;
68870;SDS011;55906;52.278;6.808;2023-04-30T11:42:22;6.32;;;1.80;;
68870;SDS011;55906;52.278;6.808;2023-04-30T11:44:48;4.75;;;1.30;;
68870;SDS011;55906;52.278;6.808;2023-04-30T11:47:15;4.23;;;1.57;;
68870;SDS011;55906;52.278;6.808;2023-04-30T11:49:43;4.75;;;1.40;;
68870;SDS011;55906;52.278;6.808;2023-04-30T11:52:11;4.60;;;1.63;;
68870;SDS011;55906;52.278;6.808;2023-04-30T11:54:38;4.82;;;1.50;;
68870;SDS011;55906;52.278;6.808;2023-04-30T11:57:05;5.25;;;1.70;;
68870;SDS011;55906;52.278;6.808;2023-04-30T12:02:06;5.75;;;1.30;;
68870;SDS011;55906;52.278;6.808;2023-04-30T12:04:33;4.47;;;1.30;;
68870;SDS011;55906;52.278;6.808;2023-04-30T12:07:01;4.22;;;1.60;;
68870;SDS011;55906;52.278;6.808;2023-04-30T12:09:28;4.72;;;1.75;;
68870;SDS011;55906;52.278;6.808;2023-04-30T12:11:55;5.07;;;1.43;;
68870;SDS011;55906;52.278;6.808;2023-04-30T12:14:23;4.28;;;1.55;;
68870;SDS011;55906;52.278;6.808;2023-04-30T12:16:50;4.40;;;1.60;;
68870;SDS011;55906;52.278;6.808;2023-04-30T12:19:18;5.70;;;1.50;;
68870;SDS011;55906;52.278;6.808;2023-04-30T12:21:46;4.70;;;1.65;;
68870;SDS011;55906;52.278;6.808;2023-04-30T12:24:16;4.40;;;1.30;;
68870;SDS011;55906;52.278;6.808;2023-04-30T12:26:44;3.75;;;1.38;;
68870;SDS011;55906;52.278;6.808;2023-04-30T12:29:13;5.70;;;1.58;;
68870;SDS011;55906;52.278;6.808;2023-04-30T12:31:41;4.20;;;1.30;;
68870;SDS011;55906;52.278;6.808;2023-04-30T12:34:08;4.57;;;1.40;;
68870;SDS011;55906;52.278;6.808;2023-04-30T12:36:37;5.13;;;1.50;;
68870;SDS011;55906;52.278;6.808;2023-04-30T12:39:07;4.63;;;1.15;;
68870;SDS011;55906;52.278;6.808;2023-04-30T12:41:38;3.92;;;1.25;;
68870;SDS011;55906;52.278;6.808;2023-04-30T12:44:12;3.13;;;1.00;;
68870;SDS011;55906;52.278;6.808;2023-04-30T12:46:40;4.00;;;1.10;;
68870;SDS011;55906;52.278;6.808;2023-04-30T12:49:07;3.87;;;1.07;;
68870;SDS011;55906;52.278;6.808;2023-04-30T12:51:35;4.30;;;1.27;;
68870;SDS011;55906;52.278;6.808;2023-04-30T12:54:04;3.53;;;1.02;;
68870;SDS011;55906;52.278;6.808;2023-04-30T12:56:31;4.35;;;0.95;;
68870;SDS011;55906;52.278;6.808;2023-04-30T12:58:59;3.63;;;0.95;;
68870;SDS011;55906;52.278;6.808;2023-04-30T13:01:25;3.87;;;1.10;;
68870;SDS011;55906;52.278;6.808;2023-04-30T13:03:52;5.78;;;1.00;;
68870;SDS011;55906;52.278;6.808;2023-04-30T13:06:19;3.88;;;0.82;;
68870;SDS011;55906;52.278;6.808;2023-04-30T13:08:46;2.92;;;0.90;;
68870;SDS011;55906;52.278;6.808;2023-04-30T13:11:13;2.95;;;1.00;;
68870;SDS011;55906;52.278;6.808;2023-04-30T13:13:40;3.13;;;0.70;;
68870;SDS011;55906;52.278;6.808;2023-04-30T13:16:08;3.33;;;0.80;;
68870;SDS011;55906;52.278;6.808;2023-04-30T13:18:34;2.72;;;0.70;;
68870;SDS011;55906;52.278;6.808;2023-04-30T13:21:01;4.22;;;0.98;;
68870;SDS011;55906;52.278;6.808;2023-04-30T13:23:28;2.40;;;0.60;;
68870;SDS011;55906;52.278;6.808;2023-04-30T13:25:54;3.00;;;0.80;;
68870;SDS011;55906;52.278;6.808;2023-04-30T13:28:21;2.83;;;0.75;;
68870;SDS011;55906;52.278;6.808;2023-04-30T13:30:47;3.40;;;0.80;;
68870;SDS011;55906;52.278;6.808;2023-04-30T13:33:15;3.53;;;0.93;;
68870;SDS011;55906;52.278;6.808;2023-04-30T13:35:42;4.20;;;0.80;;
68870;SDS011;55906;52.278;6.808;2023-04-30T13:38:10;2.67;;;0.70;;
68870;SDS011;55906;52.278;6.808;2023-04-30T13:40:37;4.55;;;0.75;;
68870;SDS011;55906;52.278;6.808;2023-04-30T13:43:03;3.90;;;0.90;;
68870;SDS011;55906;52.278;6.808;2023-04-30T13:45:30;4.65;;;1.10;;
68870;SDS011;55906;52.278;6.808;2023-04-30T13:47:57;3.92;;;0.90;;
68870;SDS011;55906;52.278;6.808;2023-04-30T13:50:25;3.53;;;0.77;;
68870;SDS011;55906;52.278;6.808;2023-04-30T13:52:51;3.30;;;0.90;;
68870;SDS011;55906;52.278;6.808;2023-04-30T13:55:18;3.20;;;0.80;;
68870;SDS011;55906;52.278;6.808;2023-04-30T13:57:45;3.13;;;0.80;;
68870;SDS011;55906;52.278;6.808;2023-04-30T14:00:12;2.95;;;0.60;;
68870;SDS011;55906;52.278;6.808;2023-04-30T14:02:40;2.53;;;0.60;;
68870;SDS011;55906;52.278;6.808;2023-04-30T14:05:06;2.70;;;0.65;;
68870;SDS011;55906;52.278;6.808;2023-04-30T14:07:35;3.08;;;0.65;;
68870;SDS011;55906;52.278;6.808;2023-04-30T14:10:01;3.35;;;0.63;;
68870;SDS011;55906;52.278;6.808;2023-04-30T14:12:28;3.75;;;0.70;;
68870;SDS011;55906;52.278;6.808;2023-04-30T14:14:55;2.33;;;0.57;;
68870;SDS011;55906;52.278;6.808;2023-04-30T14:17:22;4.35;;;0.90;;
68870;SDS011;55906;52.278;6.808;2023-04-30T14:19:50;3.03;;;0.65;;
68870;SDS011;55906;52.278;6.808;2023-04-30T14:22:17;2.70;;;0.70;;
68870;SDS011;55906;52.278;6.808;2023-04-30T14:24:45;2.80;;;0.65;;
68870;SDS011;55906;52.278;6.808;2023-04-30T14:27:11;3.67;;;0.73;;
68870;SDS011;55906;52.278;6.808;2023-04-30T14:29:38;3.10;;;0.52;;
68870;SDS011;55906;52.278;6.808;2023-04-30T14:32:05;4.15;;;0.80;;
68870;SDS011;55906;52.278;6.808;2023-04-30T14:34:31;3.13;;;0.80;;
68870;SDS011;55906;52.278;6.808;2023-04-30T14:36:58;3.00;;;0.70;;
68870;SDS011;55906;52.278;6.808;2023-04-30T14:39:26;3.77;;;0.83;;
68870;SDS011;55906;52.278;6.808;2023-04-30T14:41:54;3.72;;;0.65;;
68870;SDS011;55906;52.278;6.808;2023-04-30T14:44:20;3.30;;;0.60;;
68870;SDS011;55906;52.278;6.808;2023-04-30T14:46:49;3.50;;;1.00;;
68870;SDS011;55906;52.278;6.808;2023-04-30T14:49:15;4.40;;;1.10;;
68870;SDS011;55906;52.278;6.808;2023-04-30T14:51:42;4.23;;;1.10;;
68870;SDS011;55906;52.278;6.808;2023-04-30T14:54:08;3.92;;;1.02;;